Terminal Aerodrome Forecast
Issued by NWS

Home | Current Version | Previous Version | Text Only | Print | Product List | Glossary On
Versions: 1 2 3 4 5 6 7 8 9 10 11 12 13 14 15 16 17 18
000
FTUS41 KCLE 030500 CCA
TAFFDY
TAF COR
KFDY 030559Z 0306/0406 20003KT P6SM SKC
      TEMPO 0306/0309 5SM BR
     FM030900 VRB03KT 5SM BR SKC
      TEMPO 0309/0313 3SM BR
     FM031400 20005KT P6SM SKC
     FM032200 18003KT P6SM SKC=

USA.gov is the U.S. government's official web portal to all federal, state and local government web resources and services.